Time;durP1;ratioP1;P1;durP2;ratioP2;P2;SDS_P1;SDS_P2;PMS_P1;PMS_P2;Temp;Humidity;BMP_temperature;BMP_pressure;BME280_temperature;BME280_humidity;BME280_pressure;Samples;Min_cycle;Max_cycle;Signal;HPM_P1;HPM_P2
2023/06/15 00:00:10;;;;;;;4.83;3.00;;;;;;;-145.69;nan;51905.75;5076323;28;20256;-81
2023/06/15 00:02:37;;;;;;;5.00;3.13;;;;;;;-145.69;nan;51899.81;5076151;28;20255;-81
2023/06/15 00:05:04;;;;;;;7.50;3.57;;;;;;;-145.69;nan;51895.84;5062095;28;20625;-81
2023/06/15 00:07:30;;;;;;;5.43;3.47;;;;;;;-145.69;nan;51925.56;5073489;28;20731;-81
2023/06/15 00:09:58;;;;;;;6.57;3.57;;;;;;;-145.69;nan;51903.78;5075041;28;20222;-81
2023/06/15 00:12:25;;;;;;;7.20;3.47;;;;;;;-145.69;nan;51905.75;5075186;28;20735;-81
2023/06/15 00:14:51;;;;;;;4.70;3.20;;;;;;;-145.69;nan;51921.59;5075733;28;20210;-81
2023/06/15 00:17:18;;;;;;;6.50;3.50;;;;;;;-145.69;nan;51885.94;5075781;28;20300;-81
2023/06/15 00:19:45;;;;;;;6.83;3.13;;;;;;;-145.69;nan;51887.94;5076036;28;20229;-81
2023/06/15 00:22:14;;;;;;;6.53;3.40;;;;;;;-145.69;nan;51905.75;5074312;28;20301;-81
2023/06/15 00:24:41;;;;;;;5.53;3.10;;;;;;;-145.69;nan;51909.72;5075357;28;20199;-81
2023/06/15 00:27:09;;;;;;;6.83;4.07;;;;;;;-145.69;nan;51925.56;5075553;28;20206;-81
2023/06/15 00:29:35;;;;;;;6.93;3.33;;;;;;;-145.69;nan;51931.50;5075293;28;20576;-82
2023/06/15 00:32:02;;;;;;;7.13;3.70;;;;;;;-145.69;nan;51917.63;5075352;28;20293;-81
2023/06/15 00:34:28;;;;;;;7.20;4.00;;;;;;;-145.69;nan;51907.72;5075494;28;20202;-82
2023/06/15 00:36:55;;;;;;;6.43;3.47;;;;;;;-145.69;nan;51945.34;5075016;28;20241;-81
2023/06/15 00:39:21;;;;;;;8.57;3.73;;;;;;;-145.69;nan;51889.91;5075666;28;20317;-81
2023/06/15 00:41:48;;;;;;;7.40;3.57;;;;;;;-145.69;nan;51903.78;5075154;28;20199;-81
2023/06/15 00:44:16;;;;;;;10.37;4.00;;;;;;;-145.69;nan;51925.56;5074926;28;20202;-81
2023/06/15 00:46:43;;;;;;;4.70;3.43;;;;;;;-145.69;nan;51895.84;5075094;28;20241;-81
2023/06/15 00:49:12;;;;;;;11.50;4.53;;;;;;;-145.69;nan;51885.94;5074901;28;20234;-81
2023/06/15 00:51:43;;;;;;;7.67;3.13;;;;;;;-145.69;nan;51901.78;5074810;28;20650;-80
2023/06/15 00:54:12;;;;;;;11.80;3.43;;;;;;;-145.69;nan;51917.63;5074748;28;20198;-80
2023/06/15 00:56:39;;;;;;;8.47;3.63;;;;;;;-145.69;nan;51893.88;5074783;28;20685;-80
2023/06/15 00:59:06;;;;;;;9.47;3.10;;;;;;;-145.69;nan;51899.81;5074841;28;20210;-80
2023/06/15 01:01:34;;;;;;;7.47;3.87;;;;;;;-145.69;nan;51882.00;5074630;28;20225;-81
2023/06/15 01:04:01;;;;;;;6.17;3.63;;;;;;;-145.69;nan;51933.47;5075590;28;20195;-80
2023/06/15 01:06:31;;;;;;;7.70;3.70;;;;;;;-145.69;nan;51893.88;5074543;28;20262;-80
2023/06/15 01:08:59;;;;;;;8.50;3.70;;;;;;;-145.69;nan;51935.47;5074729;28;20604;-80
2023/06/15 01:11:26;;;;;;;5.27;3.43;;;;;;;-145.69;nan;51905.75;5074069;28;20593;-80
2023/06/15 01:13:54;;;;;;;5.73;3.57;;;;;;;-145.69;nan;51921.59;5073397;28;20198;-81
2023/06/15 01:16:25;;;;;;;5.60;3.63;;;;;;;-145.69;nan;51941.41;5069450;28;20191;-80
2023/06/15 01:18:59;;;;;;;6.50;3.33;;;;;;;-145.69;nan;51897.84;5072687;28;20198;-81
2023/06/15 01:21:27;;;;;;;5.33;3.50;;;;;;;-145.69;nan;51905.75;5074228;28;20776;-81
2023/06/15 01:24:11;;;;;;;8.67;3.47;;;;;;;-145.69;nan;51915.66;5074479;28;20199;-81
2023/06/15 01:26:41;;;;;;;7.23;3.43;;;;;;;-145.69;nan;51925.56;5074017;28;20230;-81
2023/06/15 01:29:10;;;;;;;8.70;3.50;;;;;;;-145.69;nan;51937.44;5073472;28;20611;-80
2023/06/15 01:31:37;;;;;;;5.40;3.67;;;;;;;-145.69;nan;51933.47;5073895;28;20203;-80
2023/06/15 01:34:04;;;;;;;10.00;3.73;;;;;;;-145.69;nan;51919.63;5073499;28;20199;-81
2023/06/15 01:36:30;;;;;;;8.00;3.60;;;;;;;-145.69;nan;51931.50;5073432;28;20191;-81
2023/06/15 01:39:01;;;;;;;8.50;3.97;;;;;;;-145.69;nan;51917.63;5071604;28;20660;-80
2023/06/15 01:41:28;;;;;;;8.47;3.77;;;;;;;-145.69;nan;51909.72;5073442;28;20676;-81
2023/06/15 01:43:58;;;;;;;10.47;3.60;;;;;;;-145.69;nan;51893.88;5073801;28;20214;-81
2023/06/15 01:46:26;;;;;;;5.47;3.77;;;;;;;-145.69;nan;51937.44;5073938;28;20226;-80
2023/06/15 01:48:55;;;;;;;7.13;3.73;;;;;;;-145.69;nan;51953.28;5073378;28;20222;-81
2023/06/15 01:51:23;;;;;;;7.60;3.90;;;;;;;-145.69;nan;51945.34;5073535;28;20226;-81
2023/06/15 01:53:50;;;;;;;6.47;3.53;;;;;;;-145.69;nan;51925.56;5073337;28;20688;-81
2023/06/15 01:56:17;;;;;;;7.63;3.77;;;;;;;-145.69;nan;51939.41;5072852;28;20194;-80
2023/06/15 01:58:45;;;;;;;6.73;3.70;;;;;;;-145.69;nan;51897.84;5073537;28;20244;-81
2023/06/15 02:01:12;;;;;;;6.83;3.90;;;;;;;-145.69;nan;51897.84;5073408;28;20225;-81
2023/06/15 02:03:39;;;;;;;6.73;3.50;;;;;;;-145.69;nan;51945.34;5073035;28;20199;-81
2023/06/15 02:06:05;;;;;;;4.70;3.27;;;;;;;-145.69;nan;51915.66;5073212;28;20236;-81
2023/06/15 02:08:32;;;;;;;6.00;3.60;;;;;;;-145.69;nan;51905.75;5073249;28;20209;-80
2023/06/15 02:10:58;;;;;;;7.23;3.63;;;;;;;-145.69;nan;51955.25;5067217;28;20202;-81
2023/06/15 02:13:25;;;;;;;5.83;3.43;;;;;;;-145.69;nan;51907.72;5073403;28;20199;-81
2023/06/15 02:15:51;;;;;;;8.23;3.93;;;;;;;-145.69;nan;51925.56;5073302;28;20260;-81
2023/06/15 02:18:20;;;;;;;6.40;3.77;;;;;;;-145.69;nan;51937.44;5073106;28;20206;-81
2023/06/15 02:20:47;;;;;;;6.23;3.70;;;;;;;-145.69;nan;51927.53;5072836;28;20205;-81
2023/06/15 02:23:14;;;;;;;6.67;3.83;;;;;;;-145.69;nan;51913.69;5073013;28;20205;-81
2023/06/15 02:25:40;;;;;;;8.07;3.50;;;;;;;-145.69;nan;51901.78;5072825;28;20230;-81
2023/06/15 02:28:07;;;;;;;4.93;3.57;;;;;;;-145.69;nan;51941.41;5073121;28;20202;-81
2023/06/15 02:30:33;;;;;;;6.23;3.60;;;;;;;-145.69;nan;51905.75;5072929;28;20256;-81
2023/06/15 02:33:00;;;;;;;6.07;3.60;;;;;;;-145.69;nan;51913.69;5072809;28;20222;-80
2023/06/15 02:35:32;;;;;;;6.87;3.90;;;;;;;-145.69;nan;51901.78;5072869;28;20286;-80
2023/06/15 02:37:58;;;;;;;6.77;3.77;;;;;;;-145.69;nan;51895.84;5072579;28;20570;-81
2023/06/15 02:40:24;;;;;;;9.17;3.93;;;;;;;-145.69;nan;51927.53;5072959;28;20202;-81
2023/06/15 02:42:51;;;;;;;6.43;3.80;;;;;;;-145.69;nan;51925.56;5072671;28;20199;-80
2023/06/15 02:45:17;;;;;;;5.67;4.17;;;;;;;-145.69;nan;51907.72;5072987;28;20267;-81
2023/06/15 02:47:45;;;;;;;6.97;4.07;;;;;;;-145.69;nan;51953.28;5072987;28;20239;-80
2023/06/15 02:50:12;;;;;;;5.53;4.17;;;;;;;-145.69;nan;51957.25;5073136;28;20198;-80
2023/06/15 02:52:40;;;;;;;6.03;4.20;;;;;;;-145.69;nan;51963.19;5072996;28;20563;-81
2023/06/15 02:55:08;;;;;;;7.43;4.17;;;;;;;-145.69;nan;51945.34;5072701;28;20576;-81
2023/06/15 02:57:35;;;;;;;6.53;4.40;;;;;;;-145.69;nan;51953.28;5072564;28;20195;-80
2023/06/15 03:00:03;;;;;;;6.80;3.90;;;;;;;-145.69;nan;51947.34;5072475;28;20654;-80
2023/06/15 03:02:30;;;;;;;9.47;4.77;;;;;;;-145.69;nan;51965.16;5071002;28;20207;-80
2023/06/15 03:04:56;;;;;;;7.27;4.40;;;;;;;-145.69;nan;51941.41;5072905;28;20226;-80
2023/06/15 03:07:23;;;;;;;9.73;4.30;;;;;;;-145.69;nan;51959.22;5072895;28;20226;-80
2023/06/15 03:09:52;;;;;;;8.43;4.70;;;;;;;-145.69;nan;51957.25;5072767;28;20250;-80
2023/06/15 03:12:19;;;;;;;8.93;4.27;;;;;;;-145.69;nan;51939.41;5072595;28;20290;-80
2023/06/15 03:14:50;;;;;;;6.20;3.93;;;;;;;-145.69;nan;51939.41;5072917;28;20231;-81
2023/06/15 03:17:17;;;;;;;8.27;4.10;;;;;;;-145.69;nan;51941.41;5072454;28;20206;-81
2023/06/15 03:19:46;;;;;;;7.23;4.53;;;;;;;-145.69;nan;51917.63;5072591;28;20203;-80
2023/06/15 03:22:13;;;;;;;7.40;4.37;;;;;;;-145.69;nan;51937.44;5072440;28;20684;-81
2023/06/15 03:24:41;;;;;;;10.67;4.77;;;;;;;-145.69;nan;51945.34;5072747;28;20248;-80
2023/06/15 03:27:10;;;;;;;6.27;4.00;;;;;;;-145.69;nan;51935.47;5072640;28;20230;-80
2023/06/15 03:29:37;;;;;;;12.20;4.67;;;;;;;-145.69;nan;51984.97;5072612;28;20226;-80
2023/06/15 03:32:05;;;;;;;7.70;4.47;;;;;;;-145.69;nan;51937.44;5072702;28;20711;-81
2023/06/15 03:34:31;;;;;;;10.83;5.10;;;;;;;-145.69;nan;51965.16;5072429;28;20286;-81
2023/06/15 03:36:58;;;;;;;10.53;4.17;;;;;;;-145.69;nan;51921.59;5072622;28;20203;-81
2023/06/15 03:39:24;;;;;;;6.50;4.10;;;;;;;-145.69;nan;51947.34;5071931;28;20191;-81
2023/06/15 03:41:51;;;;;;;7.30;4.00;;;;;;;-145.69;nan;51945.34;5071846;28;20191;-80
2023/06/15 03:44:19;;;;;;;8.30;4.77;;;;;;;-145.69;nan;51963.19;5072289;28;20256;-80
2023/06/15 03:46:46;;;;;;;6.30;4.27;;;;;;;-145.69;nan;51941.41;5071749;28;20704;-80
2023/06/15 03:49:13;;;;;;;8.30;4.73;;;;;;;-145.69;nan;51981.00;5072147;28;20253;-80
2023/06/15 03:51:39;;;;;;;6.50;4.50;;;;;;;-145.69;nan;51953.28;5072234;28;20214;-80
2023/06/15 03:54:06;;;;;;;7.40;4.50;;;;;;;-145.69;nan;51957.25;5072167;28;20668;-80
2023/06/15 03:56:32;;;;;;;9.57;4.70;;;;;;;-145.69;nan;51949.31;5072228;28;20248;-80
2023/06/15 03:58:59;;;;;;;10.80;5.23;;;;;;;-145.69;nan;51933.47;5074644;28;20289;-80
2023/06/15 04:01:27;;;;;;;7.13;4.80;;;;;;;-145.69;nan;51975.06;5075363;28;20286;-80
2023/06/15 04:03:55;;;;;;;7.00;3.97;;;;;;;-145.69;nan;51957.25;5075586;28;20211;-80
2023/06/15 04:06:22;;;;;;;8.03;4.40;;;;;;;-145.69;nan;51961.19;5075656;28;20222;-80
2023/06/15 04:08:48;;;;;;;8.27;4.60;;;;;;;-145.69;nan;51961.19;5075878;28;20206;-80
2023/06/15 04:11:15;;;;;;;8.47;4.20;;;;;;;-145.69;nan;51951.28;5076058;28;20207;-81
2023/06/15 04:13:42;;;;;;;5.50;4.10;;;;;;;-145.69;nan;51941.41;5075534;28;20202;-80
2023/06/15 04:16:08;;;;;;;10.10;4.60;;;;;;;-145.69;nan;51971.09;5074094;28;20217;-80
2023/06/15 04:18:36;;;;;;;8.23;4.60;;;;;;;-145.69;nan;51969.13;5064198;28;20597;-81
2023/06/15 04:21:03;;;;;;;9.73;4.97;;;;;;;-145.69;nan;51949.31;5055818;28;20195;-81
2023/06/15 04:23:30;;;;;;;6.20;4.17;;;;;;;-145.69;nan;51901.78;5065583;28;20562;-81
2023/06/15 04:25:58;;;;;;;6.83;4.20;;;;;;;-145.69;nan;51955.25;5075399;28;20203;-80
2023/06/15 04:28:24;;;;;;;7.20;4.57;;;;;;;-145.69;nan;51935.47;5075284;28;20198;-81
2023/06/15 04:30:54;;;;;;;8.63;4.40;;;;;;;-145.69;nan;51929.50;5075351;28;20231;-80
2023/06/15 04:33:21;;;;;;;11.83;4.87;;;;;;;-145.69;nan;51959.22;5074892;28;20286;-80
2023/06/15 04:35:50;;;;;;;9.40;4.33;;;;;;;-145.69;nan;51963.19;5055272;28;20196;-80
2023/06/15 04:38:16;;;;;;;8.60;4.37;;;;;;;-145.69;nan;51965.16;5062727;28;20205;-80
2023/06/15 04:40:45;;;;;;;5.57;3.73;;;;;;;-145.69;nan;51965.16;5074778;28;20546;-80
2023/06/15 04:43:11;;;;;;;9.13;4.03;;;;;;;-145.69;nan;51961.19;5074833;28;20297;-81
2023/06/15 04:45:38;;;;;;;11.50;4.77;;;;;;;-145.69;nan;51969.13;5075249;28;20199;-80
2023/06/15 04:48:05;;;;;;;9.40;4.20;;;;;;;-145.69;nan;51957.25;5074946;28;20235;-81
2023/06/15 04:50:33;;;;;;;6.67;4.43;;;;;;;-145.69;nan;51971.09;5075102;28;20213;-80
2023/06/15 04:53:01;;;;;;;5.67;4.10;;;;;;;-145.69;nan;51937.44;5074454;28;20198;-81
2023/06/15 04:55:27;;;;;;;7.07;4.30;;;;;;;-145.69;nan;51992.88;5074445;28;20207;-81
2023/06/15 04:57:54;;;;;;;7.37;5.00;;;;;;;-145.69;nan;51937.44;5074910;28;20202;-82
2023/06/15 05:00:21;;;;;;;8.00;4.67;;;;;;;-145.69;nan;51961.19;5074920;28;20198;-81
2023/06/15 05:02:47;;;;;;;6.57;4.22;;;;;;;-145.69;nan;51963.19;5074399;28;20450;-81
2023/06/15 05:05:14;;;;;;;6.93;4.57;;;;;;;-145.69;nan;51961.19;5074797;28;20206;-81
2023/06/15 05:07:40;;;;;;;5.73;4.03;;;;;;;-145.69;nan;51937.44;5074682;28;20230;-80
2023/06/15 05:10:08;;;;;;;9.30;4.37;;;;;;;-145.69;nan;51961.19;5074411;28;20228;-80
2023/06/15 05:12:35;;;;;;;5.93;4.00;;;;;;;-145.69;nan;51937.44;5074639;28;20203;-80
2023/06/15 05:15:01;;;;;;;9.57;4.20;;;;;;;-145.69;nan;51921.59;5074352;28;20202;-80
2023/06/15 05:17:28;;;;;;;8.23;3.63;;;;;;;-145.69;nan;51949.31;5074779;28;20233;-81
2023/06/15 05:19:54;;;;;;;5.17;3.57;;;;;;;-145.69;nan;51909.72;5074548;28;20203;-81
2023/06/15 05:22:21;;;;;;;6.27;3.87;;;;;;;-145.69;nan;51913.69;5074247;28;20229;-81
2023/06/15 05:24:50;;;;;;;8.23;4.13;;;;;;;-145.69;nan;51937.44;5073667;28;20198;-81
2023/06/15 05:27:18;;;;;;;5.10;3.90;;;;;;;-145.69;nan;51935.47;5072508;28;20593;-81
2023/06/15 05:29:46;;;;;;;6.10;3.80;;;;;;;-145.69;nan;51951.28;5074211;28;20251;-81
2023/06/15 05:32:12;;;;;;;7.65;4.03;;;;;;;-145.69;nan;51917.63;5074001;28;20313;-81
2023/06/15 05:34:39;;;;;;;6.78;3.78;;;;;;;-145.69;nan;51941.41;5073848;28;20269;-80
2023/06/15 05:37:05;;;;;;;5.32;3.40;;;;;;;-145.69;nan;51917.63;5073533;28;20198;-81
2023/06/15 05:39:32;;;;;;;6.53;3.90;;;;;;;-145.69;nan;51882.00;5074180;28;20203;-81
2023/06/15 05:41:58;;;;;;;5.60;3.72;;;;;;;-145.69;nan;51883.97;5073803;28;20203;-81
2023/06/15 05:44:26;;;;;;;7.53;3.97;;;;;;;-145.69;nan;51882.00;5073843;28;20715;-81
2023/06/15 05:46:53;;;;;;;6.10;3.33;;;;;;;-145.69;nan;51848.34;5073769;28;20229;-81
2023/06/15 05:49:19;;;;;;;6.97;3.50;;;;;;;-145.69;nan;51812.69;5073017;28;20305;-79
2023/06/15 05:51:46;;;;;;;5.07;3.17;;;;;;;-145.69;nan;51775.06;5073509;28;20203;-80
2023/06/15 05:54:12;;;;;;;4.50;2.80;;;;;;;-145.69;nan;51781.00;5073508;28;20187;-80
2023/06/15 05:56:39;;;;;;;6.72;2.92;;;;;;;-145.69;nan;51779.03;5073722;28;20206;-80
2023/06/15 05:59:05;;;;;;;4.85;2.90;;;;;;;-145.69;nan;51771.09;5073135;28;20191;-79
2023/06/15 06:01:33;;;;;;;5.15;3.22;;;;;;;-145.69;nan;51788.94;5073367;28;20202;-79
2023/06/15 06:04:02;;;;;;;4.82;3.05;;;;;;;-145.69;nan;51798.81;5073214;28;20207;-79
2023/06/15 06:06:28;;;;;;;5.18;3.05;;;;;;;-145.69;nan;51779.03;5073516;28;20203;-80
2023/06/15 06:08:55;;;;;;;6.15;3.53;;;;;;;-145.69;nan;51866.16;5073909;28;20202;-79
2023/06/15 06:11:21;;;;;;;6.20;2.90;;;;;;;-145.69;nan;51826.56;5073120;28;20218;-78
2023/06/15 06:13:50;;;;;;;3.50;3.10;;;;;;;-145.69;nan;51826.56;5071988;28;20207;-80
2023/06/15 06:16:17;;;;;;;6.32;3.13;;;;;;;-145.69;nan;51832.50;5054684;28;20665;-80
2023/06/15 06:18:45;;;;;;;4.85;3.35;;;;;;;-145.69;nan;51802.78;5053436;28;20291;-80
2023/06/15 06:21:11;;;;;;;6.03;2.97;;;;;;;-145.69;nan;51830.50;5053038;28;20203;-79
2023/06/15 06:23:39;;;;;;;5.90;3.08;;;;;;;-145.69;nan;51850.31;5071467;28;20205;-79
2023/06/15 06:26:05;;;;;;;6.80;3.00;;;;;;;-145.69;nan;51836.44;5073350;28;20206;-80
2023/06/15 06:28:32;;;;;;;5.53;3.38;;;;;;;-145.69;nan;51806.75;5072963;28;20226;-80
2023/06/15 06:30:58;;;;;;;7.25;3.63;;;;;;;-145.69;nan;51810.72;5072537;28;20680;-79
2023/06/15 06:33:25;;;;;;;10.25;3.65;;;;;;;-145.69;nan;51828.53;5073466;28;20198;-80
2023/06/15 06:35:53;;;;;;;6.18;3.45;;;;;;;-145.69;nan;51846.34;5073027;28;20195;-79
2023/06/15 06:38:19;;;;;;;7.75;4.28;;;;;;;-145.69;nan;51828.53;5073487;28;20304;-82
2023/06/15 06:40:46;;;;;;;10.18;4.70;;;;;;;-145.69;nan;51858.22;5073414;28;20194;-79
2023/06/15 06:43:12;;;;;;;5.85;3.83;;;;;;;-145.69;nan;51858.22;5073661;28;20199;-81
2023/06/15 06:45:39;;;;;;;8.15;3.80;;;;;;;-145.69;nan;51852.28;5073009;28;20205;-81
2023/06/15 06:48:06;;;;;;;5.75;3.70;;;;;;;-145.69;nan;51858.22;5073074;28;20389;-82
2023/06/15 06:50:32;;;;;;;8.80;4.15;;;;;;;-145.69;nan;51840.41;5073300;28;20198;-80
2023/06/15 06:53:01;;;;;;;7.80;3.78;;;;;;;-145.69;nan;51838.44;5072875;28;20209;-81
2023/06/15 06:55:27;;;;;;;8.73;3.90;;;;;;;-145.69;nan;51846.34;5072335;28;20657;-82
2023/06/15 06:57:54;;;;;;;6.90;3.85;;;;;;;-145.69;nan;51846.34;5072909;28;20575;-81
2023/06/15 07:00:21;;;;;;;6.93;3.80;;;;;;;-145.69;nan;51846.34;5073082;28;20206;-81
2023/06/15 07:02:47;;;;;;;6.40;3.83;;;;;;;-145.69;nan;51858.22;5072943;28;20332;-81
2023/06/15 07:05:13;;;;;;;9.98;4.00;;;;;;;-145.69;nan;51844.38;5072118;28;20202;-81
2023/06/15 07:07:40;;;;;;;5.72;3.55;;;;;;;-145.69;nan;51842.38;5072273;28;20253;-81
2023/06/15 07:10:09;;;;;;;8.43;4.18;;;;;;;-145.69;nan;51830.50;5072759;28;20202;-80
2023/06/15 07:12:35;;;;;;;10.20;4.00;;;;;;;-145.69;nan;51830.50;5072524;28;20464;-80
2023/06/15 07:15:02;;;;;;;10.35;4.60;;;;;;;-145.69;nan;51842.38;5072317;28;20245;-81
2023/06/15 07:17:28;;;;;;;12.13;4.20;;;;;;;-145.69;nan;51842.38;5070032;28;20190;-79
2023/06/15 07:19:55;;;;;;;10.43;3.83;;;;;;;-145.69;nan;51860.22;5067534;28;20195;-81
2023/06/15 07:22:21;;;;;;;11.27;4.78;;;;;;;-145.69;nan;51854.28;5067886;28;20190;-81
2023/06/15 07:24:48;;;;;;;9.63;4.40;;;;;;;-145.69;nan;51840.41;5069528;28;20539;-81
2023/06/15 07:27:16;;;;;;;8.48;4.05;;;;;;;-145.69;nan;51848.34;5070385;28;20229;-82
2023/06/15 07:29:43;;;;;;;7.00;3.70;;;;;;;-145.69;nan;51862.19;5072210;28;20210;-83
2023/06/15 07:32:09;;;;;;;7.57;3.97;;;;;;;-145.69;nan;51836.44;5070776;28;20210;-79
2023/06/15 07:34:38;;;;;;;6.00;4.13;;;;;;;-145.69;nan;51836.44;5074619;28;20606;-81
2023/06/15 07:37:06;;;;;;;9.73;4.38;;;;;;;-145.69;nan;51834.47;5076256;28;20252;-81
2023/06/15 07:39:33;;;;;;;7.72;4.30;;;;;;;-145.69;nan;51836.44;5076350;28;20198;-80
2023/06/15 07:42:00;;;;;;;12.13;4.50;;;;;;;-145.69;nan;51830.50;5076126;28;20199;-80
2023/06/15 07:44:28;;;;;;;8.60;4.05;;;;;;;-145.69;nan;51798.81;5076109;28;20198;-80
2023/06/15 07:46:55;;;;;;;6.72;4.22;;;;;;;-145.69;nan;51794.88;5076120;28;20553;-80
2023/06/15 07:49:21;;;;;;;7.30;3.88;;;;;;;-145.69;nan;51856.25;5075761;28;20230;-79
2023/06/15 07:51:48;;;;;;;5.65;3.72;;;;;;;-145.69;nan;51832.50;5074963;28;20248;-79
2023/06/15 07:54:14;;;;;;;7.13;3.70;;;;;;;-145.69;nan;51806.75;5075838;28;20206;-80
2023/06/15 07:56:42;;;;;;;8.98;3.65;;;;;;;-145.69;nan;51834.47;5075780;28;20233;-79
2023/06/15 07:59:08;;;;;;;8.20;3.90;;;;;;;-145.69;nan;51806.75;5075942;28;20203;-79
2023/06/15 08:01:36;;;;;;;14.65;4.68;;;;;;;-145.69;nan;51858.22;5075057;28;20201;-79
2023/06/15 08:04:03;;;;;;;7.15;4.05;;;;;;;-145.69;nan;51800.81;5074909;28;20197;-80
2023/06/15 08:06:30;;;;;;;6.80;4.03;;;;;;;-145.69;nan;51852.28;5075941;28;20202;-80
2023/06/15 08:08:56;;;;;;;6.75;3.70;;;;;;;-145.69;nan;51846.34;5075684;28;20230;-79
2023/06/15 08:11:23;;;;;;;7.45;3.53;;;;;;;-145.69;nan;51820.59;5075325;28;20550;-79
2023/06/15 08:13:49;;;;;;;7.93;3.65;;;;;;;-145.69;nan;51860.22;5074963;28;20203;-80
2023/06/15 08:16:16;;;;;;;6.15;4.10;;;;;;;-145.69;nan;51836.44;5060437;28;20196;-80
2023/06/15 08:18:44;;;;;;;8.35;3.40;;;;;;;-145.69;nan;51846.34;5055948;28;20670;-79
2023/06/15 08:21:12;;;;;;;6.20;3.53;;;;;;;-145.69;nan;51842.38;5055492;28;20203;-80
2023/06/15 08:23:39;;;;;;;15.45;4.07;;;;;;;-145.69;nan;51822.59;5070374;28;20223;-79
2023/06/15 08:26:05;;;;;;;7.65;4.28;;;;;;;-145.69;nan;51834.47;5075453;28;20654;-79
2023/06/15 08:28:32;;;;;;;10.23;4.00;;;;;;;-145.69;nan;51854.28;5075510;28;20300;-79
2023/06/15 08:30:58;;;;;;;5.03;3.40;;;;;;;-145.69;nan;51836.44;5074590;28;20195;-79
2023/06/15 08:33:25;;;;;;;5.78;3.55;;;;;;;-145.69;nan;51854.28;5075114;28;20199;-79
2023/06/15 08:35:53;;;;;;;8.57;3.75;;;;;;;-145.69;nan;51854.28;5075168;28;20199;-78
2023/06/15 08:38:19;;;;;;;7.60;3.70;;;;;;;-145.69;nan;51842.38;5075160;28;20209;-79
2023/06/15 08:40:46;;;;;;;9.00;4.63;;;;;;;-145.69;nan;51840.41;5075496;28;20199;-79
2023/06/15 08:43:16;;;;;;;8.38;3.45;;;;;;;-145.69;nan;51856.25;5075065;28;20677;-79
2023/06/15 08:45:44;;;;;;;7.55;3.90;;;;;;;-145.69;nan;51854.28;5075067;28;20214;-79
2023/06/15 08:48:11;;;;;;;8.90;3.30;;;;;;;-145.69;nan;51858.22;5074760;28;20735;-79
2023/06/15 08:50:39;;;;;;;6.57;3.42;;;;;;;-145.69;nan;51834.47;5075047;28;20292;-79
2023/06/15 08:53:08;;;;;;;5.70;3.50;;;;;;;-145.69;nan;51842.38;5073227;28;20195;-79
2023/06/15 08:55:36;;;;;;;8.35;3.65;;;;;;;-145.69;nan;51814.66;5072987;28;20199;-79
2023/06/15 08:58:05;;;;;;;6.53;3.08;;;;;;;-145.69;nan;51826.56;5073037;28;20202;-78
2023/06/15 09:00:31;;;;;;;6.40;3.15;;;;;;;-145.69;nan;51846.34;5072320;28;20201;-79
2023/06/15 09:03:00;;;;;;;7.60;3.15;;;;;;;-145.69;nan;51822.59;5072699;28;20199;-79
2023/06/15 09:05:27;;;;;;;5.32;3.00;;;;;;;-145.69;nan;51826.56;5072694;28;20199;-79
2023/06/15 09:07:54;;;;;;;7.47;2.92;;;;;;;-145.69;nan;51777.03;5073935;28;20237;-79
2023/06/15 09:10:24;;;;;;;5.60;3.08;;;;;;;-145.69;nan;51830.50;5074528;28;20213;-80
2023/06/15 09:12:53;;;;;;;10.30;2.95;;;;;;;-145.69;nan;51786.94;5073879;28;20203;-79
2023/06/15 09:15:21;;;;;;;13.40;3.30;;;;;;;-145.69;nan;51806.75;5074586;28;20222;-79
2023/06/15 09:17:50;;;;;;;7.20;3.05;;;;;;;-145.69;nan;51810.72;5073847;28;20195;-79
2023/06/15 09:20:18;;;;;;;4.97;3.00;;;;;;;-145.69;nan;51826.56;5074536;28;20242;-79
2023/06/15 09:22:45;;;;;;;7.00;2.92;;;;;;;-145.69;nan;51800.81;5074361;28;20233;-78
2023/06/15 09:25:13;;;;;;;15.18;4.07;;;;;;;-145.69;nan;51816.66;5074200;28;20282;-79
2023/06/15 09:27:41;;;;;;;12.05;3.42;;;;;;;-145.69;nan;51796.84;5073860;28;20314;-77
2023/06/15 09:30:12;;;;;;;4.40;2.95;;;;;;;-145.69;nan;51828.53;5074100;28;20195;-79
2023/06/15 09:32:40;;;;;;;6.57;3.42;;;;;;;-145.69;nan;51808.72;5074065;28;20667;-79
2023/06/15 09:35:08;;;;;;;22.67;4.93;;;;;;;-145.69;nan;51820.59;5073697;28;20729;-79
2023/06/15 09:37:35;;;;;;;6.00;3.10;;;;;;;-145.69;nan;51842.38;5073728;28;20206;-78
2023/06/15 09:40:05;;;;;;;9.32;3.15;;;;;;;-145.69;nan;51840.41;5074035;28;20209;-79
2023/06/15 09:42:31;;;;;;;6.10;3.17;;;;;;;-145.69;nan;51822.59;5073555;28;20199;-79
2023/06/15 09:45:03;;;;;;;5.80;3.33;;;;;;;-145.69;nan;51814.66;5073720;28;20205;-79
2023/06/15 09:47:31;;;;;;;8.90;3.10;;;;;;;-145.69;nan;51818.63;5073229;28;20272;-78
2023/06/15 09:49:59;;;;;;;7.45;3.28;;;;;;;-145.69;nan;51812.69;5073932;28;20202;-78
2023/06/15 09:52:25;;;;;;;6.45;2.85;;;;;;;-145.69;nan;51806.75;5073463;28;20280;-79
2023/06/15 09:54:53;;;;;;;7.30;3.30;;;;;;;-145.69;nan;51794.88;5073136;28;20260;-78
2023/06/15 09:57:19;;;;;;;5.50;2.95;;;;;;;-145.69;nan;51818.63;5073111;28;20672;-79
2023/06/15 09:59:46;;;;;;;7.40;3.22;;;;;;;-145.69;nan;51826.56;5073422;28;20217;-79
2023/06/15 10:02:16;;;;;;;6.50;3.05;;;;;;;-145.69;nan;51794.88;5073742;28;20198;-79
2023/06/15 10:04:46;;;;;;;6.65;3.25;;;;;;;-145.69;nan;51822.59;5073300;28;20202;-79
2023/06/15 10:07:14;;;;;;;5.55;2.83;;;;;;;-145.69;nan;51824.56;5073433;28;20198;-80
2023/06/15 10:09:45;;;;;;;7.15;3.30;;;;;;;-145.69;nan;51826.56;5073263;28;20226;-79
2023/06/15 10:12:13;;;;;;;5.30;2.95;;;;;;;-145.69;nan;51779.03;5073125;28;20621;-80
2023/06/15 10:14:49;;;;;;;6.75;3.28;;;;;;;-145.69;nan;51802.78;5073247;28;20665;-79
2023/06/15 10:17:20;;;;;;;9.98;4.72;;;;;;;-145.69;nan;51783.00;5073454;28;20209;-79
2023/06/15 10:19:51;;;;;;;5.22;2.92;;;;;;;-145.69;nan;51779.03;5073348;28;20226;-79
2023/06/15 10:22:19;;;;;;;6.22;3.10;;;;;;;-145.69;nan;51775.06;5066459;28;20200;-80
2023/06/15 10:24:46;;;;;;;6.03;2.88;;;;;;;-145.69;nan;51777.03;5071399;28;20205;-79
2023/06/15 10:27:14;;;;;;;5.45;2.80;;;;;;;-145.69;nan;51775.06;5073186;28;20231;-79
2023/06/15 10:29:48;;;;;;;3.45;2.80;;;;;;;-145.69;nan;51763.19;5072759;28;20226;-79
2023/06/15 10:32:22;;;;;;;18.80;6.40;;;;;;;-145.69;nan;51759.22;5072898;28;20654;-80
2023/06/15 10:34:54;;;;;;;6.88;3.20;;;;;;;-145.69;nan;51794.88;5073137;28;20212;-80
2023/06/15 10:37:30;;;;;;;5.90;2.88;;;;;;;-145.69;nan;51769.13;5072959;28;20221;-79
2023/06/15 10:40:05;;;;;;;9.32;3.10;;;;;;;-145.69;nan;51755.25;5073233;28;20292;-79
2023/06/15 10:42:43;;;;;;;6.68;2.70;;;;;;;-145.69;nan;51767.16;5072522;28;20201;-79
2023/06/15 10:45:28;;;;;;;6.55;3.15;;;;;;;-145.69;nan;51761.22;5072842;28;20282;-79
2023/06/15 10:47:57;;;;;;;6.22;2.85;;;;;;;-145.69;nan;51751.31;5072821;28;20226;-77
2023/06/15 10:50:24;;;;;;;6.82;2.58;;;;;;;-145.69;nan;51729.53;5073033;28;20256;-79
2023/06/15 10:52:51;;;;;;;3.95;2.60;;;;;;;-145.69;nan;51747.34;5073416;28;20207;-79
2023/06/15 10:55:22;;;;;;;7.50;2.90;;;;;;;-145.69;nan;51751.31;5072699;28;20696;-78
2023/06/15 10:57:49;;;;;;;4.55;2.92;;;;;;;-145.69;nan;51783.00;5072798;28;20203;-79
2023/06/15 11:00:24;;;;;;;3.83;2.58;;;;;;;-145.69;nan;51779.03;5072678;28;20201;-79
2023/06/15 11:02:56;;;;;;;4.80;2.70;;;;;;;-145.69;nan;51763.19;5072261;28;20798;-80
2023/06/15 11:05:24;;;;;;;4.15;2.53;;;;;;;-145.69;nan;51735.47;5072801;28;20287;-79
2023/06/15 11:07:51;;;;;;;7.78;3.03;;;;;;;-145.69;nan;51759.22;5075037;28;20191;-79
2023/06/15 11:10:21;;;;;;;4.53;2.75;;;;;;;-145.69;nan;51711.72;5076849;28;20248;-79
2023/06/15 11:12:51;;;;;;;3.72;2.45;;;;;;;-145.69;nan;51697.84;5076397;28;20205;-79
2023/06/15 11:15:18;;;;;;;5.22;2.90;;;;;;;-145.69;nan;51759.22;5076707;28;20199;-77
2023/06/15 11:17:56;;;;;;;3.60;2.65;;;;;;;-145.69;nan;51767.16;5076107;28;20199;-77
2023/06/15 11:21:01;;;;;;;5.00;2.78;;;;;;;-145.69;nan;51745.38;5076620;28;20621;-79
2023/06/15 11:23:33;;;;;;;5.07;2.72;;;;;;;-145.69;nan;51751.31;5067585;28;20659;-80
2023/06/15 11:26:02;;;;;;;5.28;2.47;;;;;;;-145.69;nan;51777.03;5076584;28;20206;-79
2023/06/15 11:28:33;;;;;;;5.85;2.85;;;;;;;-145.69;nan;51763.19;5076335;28;20230;-79
2023/06/15 11:31:02;;;;;;;4.05;2.67;;;;;;;-145.69;nan;51747.34;5076136;28;20203;-79
2023/06/15 11:33:30;;;;;;;3.47;2.53;;;;;;;-145.69;nan;51739.44;5076247;28;20475;-79